sensor_id;sensor_type;location;lat;lon;timestamp;P1;durP1;ratioP1;P2;durP2;ratioP2
14100;SDS011;7127;49.372;8.166;2022-11-23T00:13:04;2.57;;;1.60;;
14100;SDS011;7127;49.372;8.166;2022-11-23T00:22:37;1.80;;;1.10;;
14100;SDS011;7127;49.372;8.166;2022-11-23T00:32:05;1.90;;;1.23;;
14100;SDS011;7127;49.372;8.166;2022-11-23T00:38:42;1.30;;;1.10;;
14100;SDS011;7127;49.372;8.166;2022-11-23T00:52:10;1.83;;;1.30;;
14100;SDS011;7127;49.372;8.166;2022-11-23T00:59:23;2.77;;;1.30;;
14100;SDS011;7127;49.372;8.166;2022-11-23T01:16:02;3.57;;;1.70;;
14100;SDS011;7127;49.372;8.166;2022-11-23T01:19:32;1.37;;;1.10;;
14100;SDS011;7127;49.372;8.166;2022-11-23T01:26:02;1.10;;;1.00;;
14100;SDS011;7127;49.372;8.166;2022-11-23T01:29:21;2.83;;;1.10;;
14100;SDS011;7127;49.372;8.166;2022-11-23T01:47:54;1.80;;;1.20;;
14100;SDS011;7127;49.372;8.166;2022-11-23T01:49:48;1.50;;;1.00;;
14100;SDS011;7127;49.372;8.166;2022-11-23T01:57:06;1.17;;;0.90;;
14100;SDS011;7127;49.372;8.166;2022-11-23T02:07:23;1.53;;;0.93;;
14100;SDS011;7127;49.372;8.166;2022-11-23T02:10:53;1.63;;;1.10;;
14100;SDS011;7127;49.372;8.166;2022-11-23T02:14:05;0.87;;;0.87;;
14100;SDS011;7127;49.372;8.166;2022-11-23T02:17:27;2.10;;;1.00;;
14100;SDS011;7127;49.372;8.166;2022-11-23T02:20:51;1.50;;;1.00;;
14100;SDS011;7127;49.372;8.166;2022-11-23T02:45:03;1.23;;;1.00;;
14100;SDS011;7127;49.372;8.166;2022-11-23T02:48:25;1.27;;;1.03;;
14100;SDS011;7127;49.372;8.166;2022-11-23T03:10:14;1.13;;;0.87;;
14100;SDS011;7127;49.372;8.166;2022-11-23T03:13:25;1.90;;;1.10;;
14100;SDS011;7127;49.372;8.166;2022-11-23T03:24:01;1.20;;;1.00;;
14100;SDS011;7127;49.372;8.166;2022-11-23T03:34:33;1.13;;;0.90;;
14100;SDS011;7127;49.372;8.166;2022-11-23T03:41:54;1.27;;;0.90;;
14100;SDS011;7127;49.372;8.166;2022-11-23T03:47:52;1.27;;;1.00;;
14100;SDS011;7127;49.372;8.166;2022-11-23T04:04:50;1.53;;;0.97;;
14100;SDS011;7127;49.372;8.166;2022-11-23T04:34:54;1.20;;;1.10;;
14100;SDS011;7127;49.372;8.166;2022-11-23T04:37:36;2.43;;;1.30;;
14100;SDS011;7127;49.372;8.166;2022-11-23T04:40:43;1.77;;;0.70;;
14100;SDS011;7127;49.372;8.166;2022-11-23T04:43:49;3.10;;;0.90;;
14100;SDS011;7127;49.372;8.166;2022-11-23T04:49:57;1.40;;;1.10;;
14100;SDS011;7127;49.372;8.166;2022-11-23T05:02:40;1.83;;;1.10;;
14100;SDS011;7127;49.372;8.166;2022-11-23T05:05:35;2.23;;;1.00;;
14100;SDS011;7127;49.372;8.166;2022-11-23T05:08:23;2.07;;;1.00;;
14100;SDS011;7127;49.372;8.166;2022-11-23T05:11:08;2.30;;;1.20;;
14100;SDS011;7127;49.372;8.166;2022-11-23T05:14:02;1.43;;;0.90;;
14100;SDS011;7127;49.372;8.166;2022-11-23T05:26:43;1.20;;;1.00;;
14100;SDS011;7127;49.372;8.166;2022-11-23T05:29:21;1.93;;;0.90;;
14100;SDS011;7127;49.372;8.166;2022-11-23T05:32:32;1.83;;;1.30;;
14100;SDS011;7127;49.372;8.166;2022-11-23T05:38:50;2.63;;;1.40;;
14100;SDS011;7127;49.372;8.166;2022-11-23T05:42:34;2.20;;;1.10;;
14100;SDS011;7127;49.372;8.166;2022-11-23T05:51:58;1.27;;;0.80;;
14100;SDS011;7127;49.372;8.166;2022-11-23T05:55:06;2.70;;;1.30;;
14100;SDS011;7127;49.372;8.166;2022-11-23T06:08:18;1.37;;;0.97;;
14100;SDS011;7127;49.372;8.166;2022-11-23T06:10:46;2.30;;;0.90;;
14100;SDS011;7127;49.372;8.166;2022-11-23T06:13:14;1.47;;;1.13;;
14100;SDS011;7127;49.372;8.166;2022-11-23T06:15:41;2.17;;;1.00;;
14100;SDS011;7127;49.372;8.166;2022-11-23T06:18:08;2.67;;;1.20;;
14100;SDS011;7127;49.372;8.166;2022-11-23T06:20:38;1.47;;;1.10;;
14100;SDS011;7127;49.372;8.166;2022-11-23T06:23:14;2.23;;;1.17;;
14100;SDS011;7127;49.372;8.166;2022-11-23T06:25:42;1.23;;;1.03;;
14100;SDS011;7127;49.372;8.166;2022-11-23T06:28:11;2.80;;;1.43;;
14100;SDS011;7127;49.372;8.166;2022-11-23T06:30:38;1.43;;;1.20;;
14100;SDS011;7127;49.372;8.166;2022-11-23T06:33:05;2.37;;;1.17;;
14100;SDS011;7127;49.372;8.166;2022-11-23T06:38:08;1.93;;;1.20;;
14100;SDS011;7127;49.372;8.166;2022-11-23T06:40:35;2.07;;;1.23;;
14100;SDS011;7127;49.372;8.166;2022-11-23T06:43:02;2.50;;;1.33;;
14100;SDS011;7127;49.372;8.166;2022-11-23T06:45:31;2.33;;;1.47;;
14100;SDS011;7127;49.372;8.166;2022-11-23T06:47:58;2.17;;;1.23;;
14100;SDS011;7127;49.372;8.166;2022-11-23T06:50:25;2.33;;;1.30;;
14100;SDS011;7127;49.372;8.166;2022-11-23T06:52:53;1.23;;;1.13;;
14100;SDS011;7127;49.372;8.166;2022-11-23T06:55:21;3.10;;;1.30;;
14100;SDS011;7127;49.372;8.166;2022-11-23T06:57:48;1.40;;;1.20;;
14100;SDS011;7127;49.372;8.166;2022-11-23T07:00:16;2.00;;;1.20;;
14100;SDS011;7127;49.372;8.166;2022-11-23T07:10:30;1.23;;;0.90;;
14100;SDS011;7127;49.372;8.166;2022-11-23T07:13:01;3.03;;;1.20;;
14100;SDS011;7127;49.372;8.166;2022-11-23T07:15:29;1.40;;;1.00;;
14100;SDS011;7127;49.372;8.166;2022-11-23T07:17:56;4.17;;;1.60;;
14100;SDS011;7127;49.372;8.166;2022-11-23T07:20:23;2.57;;;1.40;;
14100;SDS011;7127;49.372;8.166;2022-11-23T07:22:57;2.20;;;1.40;;
14100;SDS011;7127;49.372;8.166;2022-11-23T07:25:25;2.07;;;1.23;;
14100;SDS011;7127;49.372;8.166;2022-11-23T07:30:30;1.27;;;1.10;;
14100;SDS011;7127;49.372;8.166;2022-11-23T07:32:58;3.17;;;1.60;;
14100;SDS011;7127;49.372;8.166;2022-11-23T07:35:26;1.63;;;1.17;;
14100;SDS011;7127;49.372;8.166;2022-11-23T07:37:53;2.37;;;1.50;;
14100;SDS011;7127;49.372;8.166;2022-11-23T07:40:21;1.37;;;1.27;;
14100;SDS011;7127;49.372;8.166;2022-11-23T07:42:48;2.23;;;1.40;;
14100;SDS011;7127;49.372;8.166;2022-11-23T07:45:15;1.30;;;1.20;;
14100;SDS011;7127;49.372;8.166;2022-11-23T07:47:44;2.00;;;1.40;;
14100;SDS011;7127;49.372;8.166;2022-11-23T07:50:12;2.27;;;1.27;;
14100;SDS011;7127;49.372;8.166;2022-11-23T07:52:39;2.30;;;1.50;;
14100;SDS011;7127;49.372;8.166;2022-11-23T07:55:06;1.63;;;1.27;;
14100;SDS011;7127;49.372;8.166;2022-11-23T07:57:34;1.30;;;1.17;;
14100;SDS011;7127;49.372;8.166;2022-11-23T08:00:02;2.17;;;1.30;;
14100;SDS011;7127;49.372;8.166;2022-11-23T08:02:30;2.77;;;1.40;;
14100;SDS011;7127;49.372;8.166;2022-11-23T08:04:58;2.90;;;1.20;;
14100;SDS011;7127;49.372;8.166;2022-11-23T08:07:25;2.27;;;1.60;;
14100;SDS011;7127;49.372;8.166;2022-11-23T08:09:52;1.83;;;1.43;;
14100;SDS011;7127;49.372;8.166;2022-11-23T08:12:19;2.97;;;1.47;;
14100;SDS011;7127;49.372;8.166;2022-11-23T08:14:46;3.23;;;1.60;;
14100;SDS011;7127;49.372;8.166;2022-11-23T08:17:13;2.53;;;1.53;;
14100;SDS011;7127;49.372;8.166;2022-11-23T08:19:40;2.07;;;1.40;;
14100;SDS011;7127;49.372;8.166;2022-11-23T08:22:09;2.40;;;1.33;;
14100;SDS011;7127;49.372;8.166;2022-11-23T08:24:36;2.83;;;1.60;;
14100;SDS011;7127;49.372;8.166;2022-11-23T08:27:03;1.67;;;1.40;;
14100;SDS011;7127;49.372;8.166;2022-11-23T08:29:30;4.17;;;1.60;;
14100;SDS011;7127;49.372;8.166;2022-11-23T08:31:57;1.90;;;1.50;;
14100;SDS011;7127;49.372;8.166;2022-11-23T08:34:24;2.13;;;1.50;;
14100;SDS011;7127;49.372;8.166;2022-11-23T08:36:51;2.33;;;1.80;;
14100;SDS011;7127;49.372;8.166;2022-11-23T08:39:20;2.20;;;1.53;;
14100;SDS011;7127;49.372;8.166;2022-11-23T08:41:47;1.83;;;1.47;;
14100;SDS011;7127;49.372;8.166;2022-11-23T08:44:14;1.87;;;1.20;;
14100;SDS011;7127;49.372;8.166;2022-11-23T08:46:41;2.73;;;1.47;;
14100;SDS011;7127;49.372;8.166;2022-11-23T08:49:09;2.67;;;1.40;;
14100;SDS011;7127;49.372;8.166;2022-11-23T08:51:36;2.67;;;1.47;;
14100;SDS011;7127;49.372;8.166;2022-11-23T08:54:03;3.20;;;1.53;;
14100;SDS011;7127;49.372;8.166;2022-11-23T08:56:32;1.80;;;1.10;;
14100;SDS011;7127;49.372;8.166;2022-11-23T08:59:00;2.73;;;1.40;;
14100;SDS011;7127;49.372;8.166;2022-11-23T09:01:27;2.83;;;1.80;;
14100;SDS011;7127;49.372;8.166;2022-11-23T09:03:54;2.33;;;1.60;;
14100;SDS011;7127;49.372;8.166;2022-11-23T09:06:21;1.80;;;1.50;;
14100;SDS011;7127;49.372;8.166;2022-11-23T09:11:29;2.60;;;1.63;;
14100;SDS011;7127;49.372;8.166;2022-11-23T09:13:57;2.17;;;1.50;;
14100;SDS011;7127;49.372;8.166;2022-11-23T09:16:24;2.00;;;1.43;;
14100;SDS011;7127;49.372;8.166;2022-11-23T09:18:53;1.80;;;1.20;;
14100;SDS011;7127;49.372;8.166;2022-11-23T09:21:21;1.47;;;1.13;;
14100;SDS011;7127;49.372;8.166;2022-11-23T09:23:53;3.77;;;1.20;;
14100;SDS011;7127;49.372;8.166;2022-11-23T09:26:21;1.30;;;1.00;;
14100;SDS011;7127;49.372;8.166;2022-11-23T09:28:50;2.13;;;1.17;;
14100;SDS011;7127;49.372;8.166;2022-11-23T09:31:20;2.60;;;1.00;;
14100;SDS011;7127;49.372;8.166;2022-11-23T09:33:50;1.93;;;1.20;;
14100;SDS011;7127;49.372;8.166;2022-11-23T09:36:25;1.60;;;0.90;;
14100;SDS011;7127;49.372;8.166;2022-11-23T09:44:31;1.70;;;1.00;;
14100;SDS011;7127;49.372;8.166;2022-11-23T09:47:19;1.40;;;0.90;;
14100;SDS011;7127;49.372;8.166;2022-11-23T09:49:57;1.20;;;1.00;;
14100;SDS011;7127;49.372;8.166;2022-11-23T09:52:41;1.87;;;0.90;;
14100;SDS011;7127;49.372;8.166;2022-11-23T09:55:12;1.57;;;1.00;;
14100;SDS011;7127;49.372;8.166;2022-11-23T09:57:43;3.93;;;1.10;;
14100;SDS011;7127;49.372;8.166;2022-11-23T10:00:15;0.90;;;0.80;;
14100;SDS011;7127;49.372;8.166;2022-11-23T10:05:22;1.27;;;0.80;;
14100;SDS011;7127;49.372;8.166;2022-11-23T10:07:57;2.13;;;1.00;;
14100;SDS011;7127;49.372;8.166;2022-11-23T10:10:47;4.07;;;1.13;;
14100;SDS011;7127;49.372;8.166;2022-11-23T10:13:26;1.83;;;0.90;;
14100;SDS011;7127;49.372;8.166;2022-11-23T10:16:11;1.00;;;0.87;;
14100;SDS011;7127;49.372;8.166;2022-11-23T10:19:04;0.93;;;0.67;;
14100;SDS011;7127;49.372;8.166;2022-11-23T10:42:29;1.63;;;0.87;;
14100;SDS011;7127;49.372;8.166;2022-11-23T10:44:59;2.53;;;1.00;;
14100;SDS011;7127;49.372;8.166;2022-11-23T10:47:33;1.70;;;0.90;;
14100;SDS011;7127;49.372;8.166;2022-11-23T10:50:18;1.27;;;0.63;;
14100;SDS011;7127;49.372;8.166;2022-11-23T10:52:49;1.80;;;0.90;;
14100;SDS011;7127;49.372;8.166;2022-11-23T10:55:19;1.57;;;0.80;;
14100;SDS011;7127;49.372;8.166;2022-11-23T10:57:52;2.00;;;0.87;;
14100;SDS011;7127;49.372;8.166;2022-11-23T11:00:21;0.90;;;0.70;;
14100;SDS011;7127;49.372;8.166;2022-11-23T11:02:50;1.67;;;0.83;;
14100;SDS011;7127;49.372;8.166;2022-11-23T11:08:15;2.20;;;0.83;;
14100;SDS011;7127;49.372;8.166;2022-11-23T11:10:44;1.13;;;0.60;;
14100;SDS011;7127;49.372;8.166;2022-11-23T11:13:21;2.10;;;0.63;;
14100;SDS011;7127;49.372;8.166;2022-11-23T11:15:50;1.90;;;0.80;;
14100;SDS011;7127;49.372;8.166;2022-11-23T11:18:19;1.30;;;0.70;;
14100;SDS011;7127;49.372;8.166;2022-11-23T11:20:46;1.40;;;0.80;;
14100;SDS011;7127;49.372;8.166;2022-11-23T11:23:20;0.83;;;0.70;;
14100;SDS011;7127;49.372;8.166;2022-11-23T11:25:48;2.10;;;0.80;;
14100;SDS011;7127;49.372;8.166;2022-11-23T11:28:36;1.97;;;0.90;;
14100;SDS011;7127;49.372;8.166;2022-11-23T11:31:15;1.27;;;0.63;;
14100;SDS011;7127;49.372;8.166;2022-11-23T11:33:55;1.57;;;0.80;;
14100;SDS011;7127;49.372;8.166;2022-11-23T11:36:29;1.40;;;0.70;;
14100;SDS011;7127;49.372;8.166;2022-11-23T11:39:02;3.07;;;0.80;;
14100;SDS011;7127;49.372;8.166;2022-11-23T11:41:38;2.03;;;0.80;;
14100;SDS011;7127;49.372;8.166;2022-11-23T11:44:12;1.73;;;0.87;;
14100;SDS011;7127;49.372;8.166;2022-11-23T11:46:46;1.57;;;0.70;;
14100;SDS011;7127;49.372;8.166;2022-11-23T11:49:20;2.53;;;0.83;;
14100;SDS011;7127;49.372;8.166;2022-11-23T11:51:52;2.00;;;0.90;;
14100;SDS011;7127;49.372;8.166;2022-11-23T11:54:26;1.73;;;0.80;;
14100;SDS011;7127;49.372;8.166;2022-11-23T11:57:01;2.20;;;0.87;;
14100;SDS011;7127;49.372;8.166;2022-11-23T11:59:34;1.10;;;0.80;;
14100;SDS011;7127;49.372;8.166;2022-11-23T12:02:13;1.67;;;0.73;;
14100;SDS011;7127;49.372;8.166;2022-11-23T12:04:47;2.03;;;0.70;;
14100;SDS011;7127;49.372;8.166;2022-11-23T12:07:21;1.37;;;0.63;;
14100;SDS011;7127;49.372;8.166;2022-11-23T12:09:54;2.40;;;1.00;;
14100;SDS011;7127;49.372;8.166;2022-11-23T12:12:28;1.47;;;0.80;;
14100;SDS011;7127;49.372;8.166;2022-11-23T12:14:59;1.47;;;0.77;;
14100;SDS011;7127;49.372;8.166;2022-11-23T12:20:29;1.40;;;0.70;;
14100;SDS011;7127;49.372;8.166;2022-11-23T12:23:07;0.97;;;0.60;;
14100;SDS011;7127;49.372;8.166;2022-11-23T12:25:43;0.47;;;0.40;;
14100;SDS011;7127;49.372;8.166;2022-11-23T12:28:35;0.80;;;0.60;;
14100;SDS011;7127;49.372;8.166;2022-11-23T12:31:15;2.47;;;0.90;;
14100;SDS011;7127;49.372;8.166;2022-11-23T12:33:55;1.20;;;0.83;;
14100;SDS011;7127;49.372;8.166;2022-11-23T12:36:44;2.37;;;1.30;;
14100;SDS011;7127;49.372;8.166;2022-11-23T12:42:28;0.80;;;0.50;;
14100;SDS011;7127;49.372;8.166;2022-11-23T12:45:16;1.90;;;0.80;;
14100;SDS011;7127;49.372;8.166;2022-11-23T12:47:54;2.67;;;1.10;;
14100;SDS011;7127;49.372;8.166;2022-11-23T12:50:32;2.17;;;0.80;;
14100;SDS011;7127;49.372;8.166;2022-11-23T12:53:15;1.73;;;0.77;;
14100;SDS011;7127;49.372;8.166;2022-11-23T12:55:59;1.13;;;0.90;;
14100;SDS011;7127;49.372;8.166;2022-11-23T12:58:31;1.33;;;0.70;;
14100;SDS011;7127;49.372;8.166;2022-11-23T13:01:01;1.63;;;0.97;;
14100;SDS011;7127;49.372;8.166;2022-11-23T13:06:32;1.93;;;0.80;;
14100;SDS011;7127;49.372;8.166;2022-11-23T13:12:18;1.20;;;0.73;;
14100;SDS011;7127;49.372;8.166;2022-11-23T13:14:56;0.70;;;0.60;;
14100;SDS011;7127;49.372;8.166;2022-11-23T13:17:34;1.60;;;0.80;;
14100;SDS011;7127;49.372;8.166;2022-11-23T13:23:04;0.77;;;0.60;;
14100;SDS011;7127;49.372;8.166;2022-11-23T13:25:31;2.37;;;0.90;;
14100;SDS011;7127;49.372;8.166;2022-11-23T13:27:59;1.47;;;0.70;;
14100;SDS011;7127;49.372;8.166;2022-11-23T13:30:47;1.93;;;0.80;;
14100;SDS011;7127;49.372;8.166;2022-11-23T13:33:45;1.77;;;1.00;;
14100;SDS011;7127;49.372;8.166;2022-11-23T13:36:32;2.10;;;0.90;;
14100;SDS011;7127;49.372;8.166;2022-11-23T13:39:02;1.57;;;0.80;;
14100;SDS011;7127;49.372;8.166;2022-11-23T13:44:26;2.30;;;0.70;;
14100;SDS011;7127;49.372;8.166;2022-11-23T13:46:56;0.73;;;0.50;;
14100;SDS011;7127;49.372;8.166;2022-11-23T13:49:30;0.83;;;0.57;;
14100;SDS011;7127;49.372;8.166;2022-11-23T13:52:05;1.13;;;0.80;;
14100;SDS011;7127;49.372;8.166;2022-11-23T13:55:00;1.50;;;0.80;;
14100;SDS011;7127;49.372;8.166;2022-11-23T13:57:30;2.10;;;0.77;;
14100;SDS011;7127;49.372;8.166;2022-11-23T14:06:18;1.93;;;0.73;;
14100;SDS011;7127;49.372;8.166;2022-11-23T14:08:57;1.30;;;0.70;;
14100;SDS011;7127;49.372;8.166;2022-11-23T14:11:27;1.13;;;0.70;;
14100;SDS011;7127;49.372;8.166;2022-11-23T14:13:55;1.60;;;0.70;;
14100;SDS011;7127;49.372;8.166;2022-11-23T14:16:39;0.90;;;0.63;;
14100;SDS011;7127;49.372;8.166;2022-11-23T14:19:27;1.23;;;0.53;;
14100;SDS011;7127;49.372;8.166;2022-11-23T14:22:03;0.93;;;0.47;;
14100;SDS011;7127;49.372;8.166;2022-11-23T14:24:57;1.40;;;0.70;;
14100;SDS011;7127;49.372;8.166;2022-11-23T14:27:40;0.87;;;0.60;;
14100;SDS011;7127;49.372;8.166;2022-11-23T14:30:32;2.37;;;0.83;;
14100;SDS011;7127;49.372;8.166;2022-11-23T14:33:12;1.73;;;0.70;;
14100;SDS011;7127;49.372;8.166;2022-11-23T14:35:50;2.37;;;0.70;;
14100;SDS011;7127;49.372;8.166;2022-11-23T14:38:40;0.80;;;0.57;;
14100;SDS011;7127;49.372;8.166;2022-11-23T14:41:25;1.40;;;0.80;;
14100;SDS011;7127;49.372;8.166;2022-11-23T14:43:55;1.83;;;0.80;;
14100;SDS011;7127;49.372;8.166;2022-11-23T14:46:25;1.10;;;0.70;;
14100;SDS011;7127;49.372;8.166;2022-11-23T14:49:01;0.83;;;0.80;;
14100;SDS011;7127;49.372;8.166;2022-11-23T14:51:30;1.30;;;0.83;;
14100;SDS011;7127;49.372;8.166;2022-11-23T14:54:06;1.40;;;0.97;;
14100;SDS011;7127;49.372;8.166;2022-11-23T14:56:39;1.50;;;0.97;;
14100;SDS011;7127;49.372;8.166;2022-11-23T14:59:14;1.83;;;1.30;;
14100;SDS011;7127;49.372;8.166;2022-11-23T15:01:47;1.93;;;1.00;;
14100;SDS011;7127;49.372;8.166;2022-11-23T15:04:20;1.90;;;1.03;;
14100;SDS011;7127;49.372;8.166;2022-11-23T15:06:50;1.37;;;0.97;;
14100;SDS011;7127;49.372;8.166;2022-11-23T15:09:22;1.00;;;0.90;;
14100;SDS011;7127;49.372;8.166;2022-11-23T15:12:07;1.40;;;0.77;;
14100;SDS011;7127;49.372;8.166;2022-11-23T15:14:45;1.60;;;0.87;;
14100;SDS011;7127;49.372;8.166;2022-11-23T15:17:13;1.57;;;0.90;;
14100;SDS011;7127;49.372;8.166;2022-11-23T15:19:41;1.37;;;0.80;;
14100;SDS011;7127;49.372;8.166;2022-11-23T15:22:13;1.30;;;0.80;;
14100;SDS011;7127;49.372;8.166;2022-11-23T15:24:44;1.57;;;0.87;;
14100;SDS011;7127;49.372;8.166;2022-11-23T15:27:14;1.90;;;1.60;;
14100;SDS011;7127;49.372;8.166;2022-11-23T15:29:48;2.67;;;1.77;;
14100;SDS011;7127;49.372;8.166;2022-11-23T15:32:19;2.60;;;1.67;;
14100;SDS011;7127;49.372;8.166;2022-11-23T15:34:49;3.07;;;1.83;;
14100;SDS011;7127;49.372;8.166;2022-11-23T15:37:19;2.60;;;1.60;;
14100;SDS011;7127;49.372;8.166;2022-11-23T15:39:48;4.80;;;1.97;;
14100;SDS011;7127;49.372;8.166;2022-11-23T15:42:18;2.00;;;1.70;;
14100;SDS011;7127;49.372;8.166;2022-11-23T15:44:47;3.13;;;1.97;;
14100;SDS011;7127;49.372;8.166;2022-11-23T15:47:15;2.40;;;1.50;;
14100;SDS011;7127;49.372;8.166;2022-11-23T15:49:46;2.77;;;1.53;;
14100;SDS011;7127;49.372;8.166;2022-11-23T15:52:14;2.60;;;1.60;;
14100;SDS011;7127;49.372;8.166;2022-11-23T15:54:43;2.13;;;1.40;;
14100;SDS011;7127;49.372;8.166;2022-11-23T15:57:13;2.10;;;1.33;;
14100;SDS011;7127;49.372;8.166;2022-11-23T15:59:45;2.07;;;1.57;;
14100;SDS011;7127;49.372;8.166;2022-11-23T16:02:14;3.30;;;2.30;;
14100;SDS011;7127;49.372;8.166;2022-11-23T16:04:43;7.00;;;4.30;;
14100;SDS011;7127;49.372;8.166;2022-11-23T16:07:15;10.37;;;6.63;;
14100;SDS011;7127;49.372;8.166;2022-11-23T16:09:44;9.70;;;6.93;;
14100;SDS011;7127;49.372;8.166;2022-11-23T16:15:30;6.07;;;4.17;;
14100;SDS011;7127;49.372;8.166;2022-11-23T16:18:13;4.27;;;3.03;;
14100;SDS011;7127;49.372;8.166;2022-11-23T16:20:44;3.47;;;2.40;;
14100;SDS011;7127;49.372;8.166;2022-11-23T16:23:15;2.03;;;1.57;;
14100;SDS011;7127;49.372;8.166;2022-11-23T16:25:50;2.87;;;1.47;;
14100;SDS011;7127;49.372;8.166;2022-11-23T16:28:22;2.13;;;1.10;;
14100;SDS011;7127;49.372;8.166;2022-11-23T16:30:54;1.47;;;1.00;;
14100;SDS011;7127;49.372;8.166;2022-11-23T16:33:21;1.60;;;0.90;;
14100;SDS011;7127;49.372;8.166;2022-11-23T16:35:49;1.67;;;0.93;;
14100;SDS011;7127;49.372;8.166;2022-11-23T16:38:16;1.20;;;0.90;;
14100;SDS011;7127;49.372;8.166;2022-11-23T16:40:44;1.80;;;0.77;;
14100;SDS011;7127;49.372;8.166;2022-11-23T16:43:12;1.23;;;0.80;;
14100;SDS011;7127;49.372;8.166;2022-11-23T16:45:49;0.90;;;0.70;;
14100;SDS011;7127;49.372;8.166;2022-11-23T16:48:40;1.27;;;0.50;;
14100;SDS011;7127;49.372;8.166;2022-11-23T16:51:08;2.23;;;1.03;;
14100;SDS011;7127;49.372;8.166;2022-11-23T16:53:39;0.80;;;0.63;;
14100;SDS011;7127;49.372;8.166;2022-11-23T16:56:08;1.13;;;0.97;;
14100;SDS011;7127;49.372;8.166;2022-11-23T16:58:39;1.00;;;0.80;;
14100;SDS011;7127;49.372;8.166;2022-11-23T17:01:07;1.37;;;0.63;;
14100;SDS011;7127;49.372;8.166;2022-11-23T17:03:45;0.70;;;0.57;;
14100;SDS011;7127;49.372;8.166;2022-11-23T17:06:12;0.80;;;0.60;;
14100;SDS011;7127;49.372;8.166;2022-11-23T17:08:41;1.27;;;0.70;;
14100;SDS011;7127;49.372;8.166;2022-11-23T17:11:10;1.80;;;0.60;;
14100;SDS011;7127;49.372;8.166;2022-11-23T17:13:39;1.90;;;0.80;;
14100;SDS011;7127;49.372;8.166;2022-11-23T17:16:11;1.57;;;0.60;;
14100;SDS011;7127;49.372;8.166;2022-11-23T17:18:39;0.77;;;0.67;;
14100;SDS011;7127;49.372;8.166;2022-11-23T17:21:08;1.00;;;0.70;;
14100;SDS011;7127;49.372;8.166;2022-11-23T17:23:35;0.67;;;0.50;;
14100;SDS011;7127;49.372;8.166;2022-11-23T17:26:05;1.17;;;0.83;;
14100;SDS011;7127;49.372;8.166;2022-11-23T17:28:32;1.60;;;0.77;;
14100;SDS011;7127;49.372;8.166;2022-11-23T17:31:00;0.70;;;0.67;;
14100;SDS011;7127;49.372;8.166;2022-11-23T17:33:27;1.00;;;0.80;;
14100;SDS011;7127;49.372;8.166;2022-11-23T17:35:55;0.87;;;0.80;;
14100;SDS011;7127;49.372;8.166;2022-11-23T17:38:24;0.50;;;0.50;;
14100;SDS011;7127;49.372;8.166;2022-11-23T17:40:52;0.70;;;0.70;;
14100;SDS011;7127;49.372;8.166;2022-11-23T17:43:19;1.67;;;0.70;;
14100;SDS011;7127;49.372;8.166;2022-11-23T17:45:46;1.23;;;0.77;;
14100;SDS011;7127;49.372;8.166;2022-11-23T17:48:13;1.30;;;1.00;;
14100;SDS011;7127;49.372;8.166;2022-11-23T17:50:41;1.23;;;0.90;;
14100;SDS011;7127;49.372;8.166;2022-11-23T17:53:08;0.80;;;0.80;;
14100;SDS011;7127;49.372;8.166;2022-11-23T17:55:37;1.77;;;1.00;;
14100;SDS011;7127;49.372;8.166;2022-11-23T17:58:04;1.00;;;0.80;;
14100;SDS011;7127;49.372;8.166;2022-11-23T18:00:32;1.10;;;0.80;;
14100;SDS011;7127;49.372;8.166;2022-11-23T18:03:00;1.57;;;0.90;;
14100;SDS011;7127;49.372;8.166;2022-11-23T18:05:27;1.10;;;0.70;;
14100;SDS011;7127;49.372;8.166;2022-11-23T18:07:55;0.90;;;0.80;;
14100;SDS011;7127;49.372;8.166;2022-11-23T18:10:23;1.00;;;0.70;;
14100;SDS011;7127;49.372;8.166;2022-11-23T18:12:51;1.13;;;0.90;;
14100;SDS011;7127;49.372;8.166;2022-11-23T18:15:18;2.20;;;0.97;;
14100;SDS011;7127;49.372;8.166;2022-11-23T18:17:45;1.10;;;1.00;;
14100;SDS011;7127;49.372;8.166;2022-11-23T18:22:42;1.90;;;0.97;;
14100;SDS011;7127;49.372;8.166;2022-11-23T18:25:09;1.13;;;1.03;;
14100;SDS011;7127;49.372;8.166;2022-11-23T18:27:36;0.80;;;0.77;;
14100;SDS011;7127;49.372;8.166;2022-11-23T18:30:06;2.00;;;0.80;;
14100;SDS011;7127;49.372;8.166;2022-11-23T18:32:52;2.13;;;1.00;;
14100;SDS011;7127;49.372;8.166;2022-11-23T18:35:21;1.60;;;1.00;;
14100;SDS011;7127;49.372;8.166;2022-11-23T18:37:48;2.43;;;1.10;;
14100;SDS011;7127;49.372;8.166;2022-11-23T18:40:16;1.97;;;1.00;;
14100;SDS011;7127;49.372;8.166;2022-11-23T18:42:42;1.10;;;1.00;;
14100;SDS011;7127;49.372;8.166;2022-11-23T18:45:11;1.20;;;0.90;;
14100;SDS011;7127;49.372;8.166;2022-11-23T18:47:38;1.97;;;1.10;;
14100;SDS011;7127;49.372;8.166;2022-11-23T18:50:05;1.03;;;0.90;;
14100;SDS011;7127;49.372;8.166;2022-11-23T18:52:32;1.10;;;1.00;;
14100;SDS011;7127;49.372;8.166;2022-11-23T18:55:00;1.53;;;1.13;;
14100;SDS011;7127;49.372;8.166;2022-11-23T18:57:27;2.27;;;1.07;;
14100;SDS011;7127;49.372;8.166;2022-11-23T18:59:54;1.17;;;1.07;;
14100;SDS011;7127;49.372;8.166;2022-11-23T19:02:22;1.30;;;1.20;;
14100;SDS011;7127;49.372;8.166;2022-11-23T19:04:50;1.00;;;1.00;;
14100;SDS011;7127;49.372;8.166;2022-11-23T19:07:19;1.33;;;1.23;;
14100;SDS011;7127;49.372;8.166;2022-11-23T19:09:48;1.27;;;0.70;;
14100;SDS011;7127;49.372;8.166;2022-11-23T19:12:32;0.80;;;0.80;;
14100;SDS011;7127;49.372;8.166;2022-11-23T19:15:07;0.70;;;0.60;;
14100;SDS011;7127;49.372;8.166;2022-11-23T19:17:46;1.03;;;0.70;;
14100;SDS011;7127;49.372;8.166;2022-11-23T19:20:36;0.70;;;0.53;;
14100;SDS011;7127;49.372;8.166;2022-11-23T19:23:04;0.87;;;0.70;;
14100;SDS011;7127;49.372;8.166;2022-11-23T19:25:31;1.00;;;0.70;;
14100;SDS011;7127;49.372;8.166;2022-11-23T19:27:58;0.53;;;0.53;;
14100;SDS011;7127;49.372;8.166;2022-11-23T19:30:25;0.60;;;0.50;;
14100;SDS011;7127;49.372;8.166;2022-11-23T19:32:54;0.93;;;0.93;;
14100;SDS011;7127;49.372;8.166;2022-11-23T19:35:21;1.03;;;0.93;;
14100;SDS011;7127;49.372;8.166;2022-11-23T19:37:48;0.70;;;0.70;;
14100;SDS011;7127;49.372;8.166;2022-11-23T19:40:16;1.10;;;0.80;;
14100;SDS011;7127;49.372;8.166;2022-11-23T19:42:43;0.90;;;0.70;;
14100;SDS011;7127;49.372;8.166;2022-11-23T19:45:10;0.73;;;0.70;;
14100;SDS011;7127;49.372;8.166;2022-11-23T19:47:37;0.53;;;0.53;;
14100;SDS011;7127;49.372;8.166;2022-11-23T19:50:06;0.77;;;0.60;;
14100;SDS011;7127;49.372;8.166;2022-11-23T19:52:34;0.80;;;0.80;;
14100;SDS011;7127;49.372;8.166;2022-11-23T19:55:01;1.10;;;0.80;;
14100;SDS011;7127;49.372;8.166;2022-11-23T19:57:29;1.10;;;0.80;;
14100;SDS011;7127;49.372;8.166;2022-11-23T19:59:57;1.53;;;0.90;;
14100;SDS011;7127;49.372;8.166;2022-11-23T20:02:24;1.13;;;0.77;;
14100;SDS011;7127;49.372;8.166;2022-11-23T20:04:52;1.43;;;0.77;;
14100;SDS011;7127;49.372;8.166;2022-11-23T20:07:20;1.30;;;0.90;;
14100;SDS011;7127;49.372;8.166;2022-11-23T20:09:47;2.43;;;1.20;;
14100;SDS011;7127;49.372;8.166;2022-11-23T20:12:15;0.70;;;0.70;;
14100;SDS011;7127;49.372;8.166;2022-11-23T20:14:42;2.23;;;1.07;;
14100;SDS011;7127;49.372;8.166;2022-11-23T20:17:10;1.70;;;1.10;;
14100;SDS011;7127;49.372;8.166;2022-11-23T20:19:37;1.33;;;1.00;;
14100;SDS011;7127;49.372;8.166;2022-11-23T20:22:04;1.33;;;1.00;;
14100;SDS011;7127;49.372;8.166;2022-11-23T20:24:32;2.23;;;1.10;;
14100;SDS011;7127;49.372;8.166;2022-11-23T20:27:00;1.10;;;0.97;;
14100;SDS011;7127;49.372;8.166;2022-11-23T20:29:27;1.33;;;1.20;;
14100;SDS011;7127;49.372;8.166;2022-11-23T20:31:54;1.83;;;1.00;;
14100;SDS011;7127;49.372;8.166;2022-11-23T20:34:21;3.50;;;0.90;;
14100;SDS011;7127;49.372;8.166;2022-11-23T20:36:48;2.77;;;1.33;;
14100;SDS011;7127;49.372;8.166;2022-11-23T20:39:15;3.43;;;1.30;;
14100;SDS011;7127;49.372;8.166;2022-11-23T20:41:44;1.33;;;0.90;;
14100;SDS011;7127;49.372;8.166;2022-11-23T20:44:13;4.13;;;1.40;;
14100;SDS011;7127;49.372;8.166;2022-11-23T20:46:40;2.77;;;1.00;;
14100;SDS011;7127;49.372;8.166;2022-11-23T20:49:07;2.80;;;1.27;;
14100;SDS011;7127;49.372;8.166;2022-11-23T20:51:34;3.57;;;1.17;;
14100;SDS011;7127;49.372;8.166;2022-11-23T20:54:01;4.53;;;1.50;;
14100;SDS011;7127;49.372;8.166;2022-11-23T20:56:28;3.83;;;1.87;;
14100;SDS011;7127;49.372;8.166;2022-11-23T20:58:57;2.90;;;1.50;;